Time;durP1;ratioP1;P1;durP2;ratioP2;P2;SDS_P1;SDS_P2;PMS_P1;PMS_P2;Temp;Humidity;BMP_temperature;BMP_pressure;BME280_temperature;BME280_humidity;BME280_pressure;Samples;Min_cycle;Max_cycle;Signal;HPM_P1;HPM_P2
2023/11/16 00:00:06;;;;;;;2.75;0.90;;;;;;;11.14;100.00;100309.47;5030406;28;20120;-69
2023/11/16 00:02:34;;;;;;;2.00;0.80;;;;;;;10.93;100.00;100282.16;5027609;28;20470;-69
2023/11/16 00:05:02;;;;;;;0.75;0.75;;;;;;;11.01;100.00;100287.56;5030193;28;20053;-69
2023/11/16 00:07:28;;;;;;;0.75;0.60;;;;;;;11.00;100.00;100288.38;5030157;28;20076;-69
2023/11/16 00:09:53;;;;;;;2.22;0.70;;;;;;;11.06;100.00;100311.81;5030123;28;20049;-69
2023/11/16 00:12:20;;;;;;;1.23;0.70;;;;;;;10.93;100.00;100289.00;5030290;28;20060;-71
2023/11/16 00:14:45;;;;;;;1.00;0.90;;;;;;;10.98;100.00;100319.34;5030232;28;20037;-69
2023/11/16 00:17:11;;;;;;;0.90;0.73;;;;;;;11.00;100.00;100321.97;5030127;28;20040;-69
2023/11/16 00:19:37;;;;;;;2.65;1.08;;;;;;;10.87;100.00;100296.59;5030255;28;20037;-71
2023/11/16 00:22:03;;;;;;;2.53;1.00;;;;;;;10.78;100.00;100295.44;5030168;28;20434;-72
2023/11/16 00:24:29;;;;;;;1.73;0.80;;;;;;;10.93;100.00;100320.88;5029976;28;20068;-69
2023/11/16 00:26:55;;;;;;;2.58;1.00;;;;;;;10.87;100.00;100299.16;5030028;28;20492;-69
2023/11/16 00:29:21;;;;;;;1.65;0.90;;;;;;;10.91;100.00;100312.19;5011614;28;20411;-70
2023/11/16 00:31:47;;;;;;;1.25;0.88;;;;;;;10.08;100.00;100164.88;5012220;28;20474;-70
2023/11/16 00:34:14;;;;;;;1.85;0.85;;;;;;;10.89;100.00;100294.91;5003530;28;20041;-69
2023/11/16 00:36:39;;;;;;;3.17;0.95;;;;;;;10.97;100.00;100319.28;5004374;28;20436;-69
2023/11/16 00:39:07;;;;;;;1.10;1.00;;;;;;;10.82;100.00;100291.25;5005370;28;20026;-69
2023/11/16 00:41:34;;;;;;;1.13;0.88;;;;;;;10.95;100.00;100323.53;5006228;28;20030;-70
2023/11/16 00:44:02;;;;;;;1.17;0.90;;;;;;;10.94;100.00;100326.91;5007515;28;20018;-69
2023/11/16 00:46:28;;;;;;;1.20;0.85;;;;;;;10.91;100.00;100335.44;5005938;28;20091;-69
2023/11/16 00:48:54;;;;;;;1.83;0.73;;;;;;;10.95;100.00;100339.91;5009825;28;20504;-71
2023/11/16 00:51:20;;;;;;;2.40;0.95;;;;;;;10.96;100.00;100325.28;5013493;28;20033;-69
2023/11/16 00:53:46;;;;;;;1.20;0.85;;;;;;;10.87;100.00;100325.00;5028582;28;20038;-69
2023/11/16 00:56:13;;;;;;;0.90;0.80;;;;;;;10.88;100.00;100329.31;5013265;28;20473;-70
2023/11/16 00:58:39;;;;;;;1.00;0.90;;;;;;;10.87;100.00;100323.28;5012790;28;20036;-69
2023/11/16 01:01:06;;;;;;;0.73;0.73;;;;;;;10.85;100.00;100322.31;5013340;28;20029;-73
2023/11/16 01:03:36;;;;;;;1.55;1.33;;;;;;;10.85;100.00;100319.75;5011247;28;20614;-70
2023/11/16 01:06:02;;;;;;;1.13;1.02;;;;;;;10.94;100.00;100306.25;5012457;28;20091;-70
2023/11/16 01:08:33;;;;;;;1.38;0.98;;;;;;;10.43;100.00;100204.78;5013198;28;20037;-70
2023/11/16 01:11:02;;;;;;;1.70;1.02;;;;;;;11.05;100.00;100296.28;5013107;28;20022;-69
2023/11/16 01:13:28;;;;;;;1.58;1.08;;;;;;;11.11;100.00;100287.00;5013090;28;20034;-69
2023/11/16 01:15:57;;;;;;;1.58;1.10;;;;;;;10.79;100.00;100240.38;5013104;28;20495;-70
2023/11/16 01:18:26;;;;;;;1.92;1.42;;;;;;;11.09;100.00;100316.22;5012925;28;20468;-69
2023/11/16 01:20:57;;;;;;;2.92;0.90;;;;;;;10.43;100.00;100230.59;5012839;28;20068;-70
2023/11/16 01:23:24;;;;;;;1.25;0.98;;;;;;;10.97;100.00;100332.22;5013045;28;20034;-70
2023/11/16 01:25:53;;;;;;;1.40;0.90;;;;;;;10.96;100.00;100327.84;5012979;28;20034;-69
2023/11/16 01:28:20;;;;;;;1.80;1.02;;;;;;;11.01;100.00;100310.81;5012760;28;20030;-70
2023/11/16 01:30:46;;;;;;;1.70;0.80;;;;;;;10.84;100.00;100290.47;5010587;28;20619;-69
2023/11/16 01:33:11;;;;;;;1.85;1.02;;;;;;;10.74;100.00;100287.53;5012498;28;20041;-70
2023/11/16 01:35:41;;;;;;;1.55;0.82;;;;;;;10.89;100.00;100307.81;5012473;28;20619;-70
2023/11/16 01:38:07;;;;;;;1.83;0.90;;;;;;;10.72;100.00;100290.06;5012761;28;20022;-69
2023/11/16 01:40:33;;;;;;;0.88;0.70;;;;;;;10.67;100.00;100322.59;5012891;28;20025;-70
2023/11/16 01:42:59;;;;;;;1.92;1.10;;;;;;;10.58;100.00;100319.69;5012376;28;20408;-75
2023/11/16 01:45:29;;;;;;;1.25;1.10;;;;;;;10.50;100.00;100312.59;5012636;28;20030;-70
2023/11/16 01:47:55;;;;;;;1.38;1.00;;;;;;;9.99;100.00;100233.38;5012237;28;20025;-70
2023/11/16 01:50:21;;;;;;;1.17;0.73;;;;;;;10.33;100.00;100304.22;5012622;28;20137;-70
2023/11/16 01:52:47;;;;;;;1.38;0.90;;;;;;;10.47;100.00;100320.22;5012288;28;20117;-70
2023/11/16 01:55:13;;;;;;;1.23;0.80;;;;;;;10.48;100.00;100321.97;5009976;28;20041;-70
2023/11/16 01:57:38;;;;;;;0.80;0.80;;;;;;;10.44;100.00;100314.94;5012137;28;20029;-70
2023/11/16 02:00:05;;;;;;;1.67;0.90;;;;;;;10.35;100.00;100301.69;5012265;28;20116;-74
2023/11/16 02:02:33;;;;;;;0.70;0.60;;;;;;;10.43;100.00;100310.59;5011985;28;20084;-69
2023/11/16 02:04:59;;;;;;;1.13;0.70;;;;;;;10.38;100.00;100308.69;5012384;28;20061;-68
2023/11/16 02:07:25;;;;;;;1.90;0.77;;;;;;;10.45;100.00;100311.50;5012153;28;20029;-70
2023/11/16 02:09:50;;;;;;;1.45;0.90;;;;;;;10.46;100.00;100333.94;5012180;28;20493;-70
2023/11/16 02:12:16;;;;;;;1.00;1.00;;;;;;;10.38;100.00;100327.63;5011874;28;20030;-72
2023/11/16 02:14:41;;;;;;;0.95;0.70;;;;;;;10.25;100.00;100327.97;5011911;28;20029;-68
2023/11/16 02:17:07;;;;;;;1.83;1.00;;;;;;;10.18;100.00;100338.09;5011722;28;20068;-70
2023/11/16 02:19:32;;;;;;;2.33;1.23;;;;;;;10.14;100.00;100349.13;5011782;28;20419;-71
2023/11/16 02:21:59;;;;;;;2.33;0.82;;;;;;;9.97;100.00;100347.59;5012129;28;20112;-69
2023/11/16 02:24:24;;;;;;;1.85;0.90;;;;;;;9.93;100.00;100361.19;5011745;28;20542;-69
2023/11/16 02:26:51;;;;;;;1.23;1.00;;;;;;;9.88;100.00;100349.03;5011687;28;20030;-68
2023/11/16 02:29:19;;;;;;;1.65;0.77;;;;;;;9.84;100.00;100339.41;5011603;28;20385;-69
2023/11/16 02:31:45;;;;;;;4.55;1.08;;;;;;;9.83;100.00;100350.56;5011616;28;20057;-69
2023/11/16 02:34:10;;;;;;;1.48;0.95;;;;;;;9.69;100.00;100321.66;5025357;28;20523;-71
2023/11/16 02:36:36;;;;;;;1.30;1.17;;;;;;;9.63;100.00;100321.44;5012092;28;20061;-70
2023/11/16 02:39:03;;;;;;;1.30;0.80;;;;;;;9.73;100.00;100365.59;5011514;28;20069;-70
2023/11/16 02:41:32;;;;;;;1.17;1.00;;;;;;;9.73;100.00;100361.31;5011379;28;20048;-69
2023/11/16 02:43:57;;;;;;;0.75;0.75;;;;;;;9.24;100.00;100275.25;5011460;28;20056;-70
2023/11/16 02:46:23;;;;;;;1.40;0.80;;;;;;;9.42;100.00;100311.19;5011534;28;20572;-74
2023/11/16 02:48:48;;;;;;;2.13;1.00;;;;;;;9.60;100.00;100353.94;5011431;28;20400;-68
2023/11/16 02:51:14;;;;;;;0.90;0.70;;;;;;;9.72;100.00;100369.88;5011376;28;20029;-70
2023/11/16 02:53:41;;;;;;;1.38;0.80;;;;;;;9.69;100.00;100374.91;5009062;28;20496;-70
2023/11/16 02:56:08;;;;;;;1.02;0.75;;;;;;;9.65;100.00;100378.19;5011136;28;20026;-72
2023/11/16 02:58:34;;;;;;;1.58;0.90;;;;;;;9.56;100.00;100383.88;5010930;28;20030;-69
2023/11/16 03:01:00;;;;;;;1.48;0.70;;;;;;;9.51;100.00;100381.09;5011062;28;20033;-69
2023/11/16 03:03:25;;;;;;;1.13;0.80;;;;;;;9.19;100.00;100311.13;5011197;28;20036;-68
2023/11/16 03:05:51;;;;;;;0.80;0.80;;;;;;;9.48;100.00;100383.56;5022302;28;20029;-70
2023/11/16 03:08:17;;;;;;;3.88;1.10;;;;;;;9.42;100.00;100357.56;5028721;28;20087;-68
2023/11/16 03:10:43;;;;;;;3.95;0.80;;;;;;;9.31;100.00;100340.75;5010757;28;20476;-69
2023/11/16 03:13:11;;;;;;;1.23;0.90;;;;;;;9.19;100.00;100339.47;5010556;28;20030;-70
2023/11/16 03:15:38;;;;;;;1.17;0.50;;;;;;;8.74;100.00;100283.56;5010969;28;20088;-70
2023/11/16 03:18:03;;;;;;;1.65;0.85;;;;;;;9.38;100.00;100397.78;5010933;28;20026;-69
2023/11/16 03:20:29;;;;;;;1.33;0.77;;;;;;;9.28;100.00;100394.75;5011210;28;20037;-69
2023/11/16 03:22:55;;;;;;;1.40;1.13;;;;;;;9.31;100.00;100408.66;5018266;28;20094;-70
2023/11/16 03:25:20;;;;;;;1.02;0.80;;;;;;;9.33;100.00;100398.41;5030591;28;20492;-72
2023/11/16 03:27:46;;;;;;;2.92;1.13;;;;;;;9.32;100.00;100399.22;5030510;28;20029;-69
2023/11/16 03:30:16;;;;;;;1.15;0.80;;;;;;;9.29;100.00;100407.69;5030382;28;20044;-70
2023/11/16 03:32:42;;;;;;;0.70;0.70;;;;;;;9.20;100.00;100404.75;5030497;28;20063;-70
2023/11/16 03:35:08;;;;;;;1.00;0.90;;;;;;;9.10;100.00;100415.47;5030337;28;20088;-72
2023/11/16 03:37:35;;;;;;;2.40;0.82;;;;;;;9.06;100.00;100417.06;5030402;28;20045;-70
2023/11/16 03:40:02;;;;;;;0.65;0.65;;;;;;;9.07;100.00;100421.38;5030460;28;20050;-70
2023/11/16 03:42:27;;;;;;;1.27;1.00;;;;;;;9.05;100.00;100434.19;5030206;28;20033;-76
2023/11/16 03:44:53;;;;;;;1.00;0.90;;;;;;;8.96;100.00;100432.91;5030255;28;20055;-71
2023/11/16 03:47:18;;;;;;;1.42;1.08;;;;;;;8.83;100.00;100418.63;5030382;28;20096;-69
2023/11/16 03:49:43;;;;;;;1.40;0.80;;;;;;;8.96;100.00;100438.06;5017762;28;20034;-70
2023/11/16 03:52:10;;;;;;;0.73;0.70;;;;;;;9.00;100.00;100456.28;5010402;28;20030;-69
2023/11/16 03:54:35;;;;;;;0.90;0.90;;;;;;;8.97;100.00;100452.69;5010406;28;20033;-75
2023/11/16 03:57:00;;;;;;;1.58;1.10;;;;;;;9.01;100.00;100452.91;5010176;28;20451;-69
2023/11/16 03:59:26;;;;;;;1.60;1.10;;;;;;;9.09;100.00;100450.66;5010748;28;20057;-69
2023/11/16 04:01:51;;;;;;;1.55;1.10;;;;;;;8.68;100.00;100393.13;5015629;28;20431;-70
2023/11/16 04:04:17;;;;;;;1.40;0.90;;;;;;;9.01;100.00;100452.91;5030241;28;20029;-71
2023/11/16 04:06:43;;;;;;;1.48;0.95;;;;;;;8.53;100.00;100378.75;5030466;28;20032;-70
2023/11/16 04:09:09;;;;;;;1.38;1.10;;;;;;;9.00;100.00;100456.28;5030356;28;20698;-70
2023/11/16 04:11:44;;;;;;;1.38;0.93;;;;;;;9.06;100.00;100463.41;5030023;28;20076;-70
2023/11/16 04:14:10;;;;;;;1.00;0.90;;;;;;;8.98;100.00;100445.03;5030165;28;20094;-70
2023/11/16 04:16:36;;;;;;;2.25;1.00;;;;;;;9.05;100.00;100475.38;5030064;28;20029;-72
2023/11/16 04:19:04;;;;;;;2.15;1.20;;;;;;;9.00;100.00;100468.31;5032975;28;20036;-69
2023/11/16 04:21:30;;;;;;;0.95;0.88;;;;;;;8.98;100.00;100482.78;5034153;28;20026;-70
2023/11/16 04:23:59;;;;;;;1.00;0.90;;;;;;;8.93;100.00;100484.28;5033743;28;20052;-70
2023/11/16 04:26:31;;;;;;;2.10;1.20;;;;;;;8.98;100.00;100500.81;5033753;28;20405;-70
2023/11/16 04:29:00;;;;;;;2.10;1.10;;;;;;;8.83;100.00;100467.56;5033740;28;20029;-70
2023/11/16 04:31:26;;;;;;;0.90;0.80;;;;;;;8.92;100.00;100508.28;5033700;28;20037;-69
2023/11/16 04:33:52;;;;;;;2.00;1.48;;;;;;;8.74;100.00;100468.91;5033542;28;20124;-69
2023/11/16 04:36:18;;;;;;;1.13;1.02;;;;;;;8.98;100.00;100505.97;5033531;28;20052;-71
2023/11/16 04:38:45;;;;;;;1.35;0.95;;;;;;;8.82;100.00;100489.84;5033368;28;20116;-69
2023/11/16 04:41:12;;;;;;;1.83;1.10;;;;;;;9.00;100.00;100512.06;5033420;28;20029;-70
2023/11/16 04:43:37;;;;;;;1.88;1.30;;;;;;;8.92;100.00;100496.25;5033496;28;20029;-69
2023/11/16 04:46:06;;;;;;;1.85;1.20;;;;;;;8.94;100.00;100497.22;5033462;28;20572;-70
2023/11/16 04:48:32;;;;;;;1.52;1.20;;;;;;;9.04;100.00;100525.13;5033451;28;20419;-70
2023/11/16 04:51:03;;;;;;;6.50;1.20;;;;;;;8.99;100.00;100536.94;5033140;28;20036;-70
2023/11/16 04:53:28;;;;;;;2.00;1.10;;;;;;;8.99;100.00;100534.34;5033415;28;20228;-70
2023/11/16 04:55:54;;;;;;;2.00;1.23;;;;;;;8.58;100.00;100451.91;5033287;28;20116;-70
2023/11/16 04:58:19;;;;;;;1.70;1.10;;;;;;;9.05;100.00;100552.66;5033339;28;20499;-69
2023/11/16 05:00:45;;;;;;;2.28;1.23;;;;;;;8.86;100.00;100534.59;5033144;28;20400;-70
2023/11/16 05:03:11;;;;;;;1.95;0.93;;;;;;;8.99;100.00;100561.81;5032984;28;20036;-70
2023/11/16 05:05:36;;;;;;;4.00;1.85;;;;;;;8.96;100.00;100566.81;5032870;28;20041;-70
2023/11/16 05:08:02;;;;;;;4.60;1.50;;;;;;;8.94;100.00;100553.88;5032467;28;20073;-71
2023/11/16 05:10:27;;;;;;;2.42;1.30;;;;;;;8.41;100.00;100468.22;5011778;28;20026;-70
2023/11/16 05:12:54;;;;;;;2.55;1.50;;;;;;;8.70;100.00;100539.06;5012900;28;20030;-70
2023/11/16 05:15:19;;;;;;;2.00;1.40;;;;;;;8.80;100.00;100555.81;5011897;28;20034;-70
2023/11/16 05:17:44;;;;;;;2.35;1.40;;;;;;;8.83;100.00;100561.09;5012012;28;20025;-71
2023/11/16 05:20:11;;;;;;;3.05;1.10;;;;;;;8.79;100.00;100556.63;5012359;28;20021;-70
2023/11/16 05:22:36;;;;;;;2.33;1.23;;;;;;;8.80;100.00;100544.63;5026453;28;20048;-70
2023/11/16 05:25:06;;;;;;;1.40;1.20;;;;;;;8.89;100.00;100571.66;5012872;28;20033;-70
2023/11/16 05:27:31;;;;;;;2.53;1.30;;;;;;;8.95;100.00;100583.97;5013001;28;20025;-70
2023/11/16 05:29:56;;;;;;;2.40;1.77;;;;;;;9.00;100.00;100590.19;5012473;28;20491;-70
2023/11/16 05:32:23;;;;;;;15.30;6.80;;;;;;;9.05;100.00;100585.25;5011964;28;20403;-71
2023/11/16 05:34:49;;;;;;;9.13;4.30;;;;;;;9.19;100.00;100585.88;5011392;28;20108;-69
2023/11/16 05:37:15;;;;;;;4.88;3.28;;;;;;;9.23;100.00;100586.09;5011823;28;20059;-74
2023/11/16 05:39:42;;;;;;;10.50;4.18;;;;;;;9.41;100.00;100605.75;5012284;28;20038;-71
2023/11/16 05:42:10;;;;;;;3.60;2.42;;;;;;;9.48;100.00;100607.78;5012318;28;20018;-76
2023/11/16 05:44:36;;;;;;;6.07;2.10;;;;;;;9.17;100.00;100549.75;5010511;28;20594;-73
2023/11/16 05:47:01;;;;;;;1.33;1.10;;;;;;;9.39;100.00;100602.19;5011095;28;20029;-70
2023/11/16 05:49:27;;;;;;;2.42;1.40;;;;;;;9.40;100.00;100614.28;5012290;28;20095;-70
2023/11/16 05:51:53;;;;;;;2.85;1.30;;;;;;;9.40;100.00;100616.84;5012402;28;20109;-70
2023/11/16 05:54:20;;;;;;;1.35;1.20;;;;;;;9.28;100.00;100616.31;5012360;28;20029;-71
2023/11/16 05:56:48;;;;;;;1.75;1.15;;;;;;;9.27;100.00;100630.00;5012372;28;20488;-70
2023/11/16 05:59:14;;;;;;;1.88;1.20;;;;;;;9.19;100.00;100630.53;5012448;28;20058;-69
2023/11/16 06:01:44;;;;;;;1.75;1.25;;;;;;;9.28;100.00;100622.31;5005948;28;20041;-76
2023/11/16 06:04:09;;;;;;;;;;;;;;;9.34;100.00;100656.09;5007156;28;20335;-69
2023/11/16 06:06:35;;;;;;;2.20;1.20;;;;;;;9.31;100.00;100637.03;4992797;28;19920;-70
2023/11/16 06:09:21;;;;;;;1.20;1.00;;;;;;;9.37;100.00;100668.22;4992835;28;20030;-72
2023/11/16 06:11:46;;;;;;;3.20;1.40;;;;;;;9.34;100.00;100663.81;5007913;28;20058;-70
2023/11/16 06:14:12;;;;;;;1.73;1.40;;;;;;;9.34;100.00;100639.78;5008269;28;20084;-71
2023/11/16 06:16:47;;;;;;;2.72;1.80;;;;;;;9.48;100.00;100656.75;5008357;28;20496;-72
2023/11/16 06:19:16;;;;;;;3.08;1.30;;;;;;;9.12;100.00;100588.97;5009291;28;20549;-74
2023/11/16 06:21:41;;;;;;;3.15;1.30;;;;;;;9.65;100.00;100659.16;4974582;28;20041;-70
2023/11/16 06:24:08;;;;;;;2.08;1.08;;;;;;;9.69;100.00;100676.53;5001603;28;20034;-74
2023/11/16 06:26:33;;;;;;;3.25;1.38;;;;;;;9.54;100.00;100649.28;5003349;28;20041;-74
2023/11/16 06:29:00;;;;;;;2.60;1.50;;;;;;;9.84;100.00;100684.03;5000884;28;20123;-71
2023/11/16 06:31:26;;;;;;;2.92;1.60;;;;;;;9.95;100.00;100700.00;5001430;28;20042;-73
2023/11/16 06:33:52;;;;;;;3.70;1.55;;;;;;;10.05;100.00;100712.47;4979316;28;20065;-70
2023/11/16 06:36:21;;;;;;;3.17;1.33;;;;;;;10.00;100.00;100709.66;5008236;28;20567;-72
2023/11/16 06:38:47;;;;;;;5.47;1.53;;;;;;;10.12;100.00;100724.81;5008474;28;20705;-72
2023/11/16 06:41:12;;;;;;;3.55;1.63;;;;;;;9.76;100.00;100641.56;5008135;28;20268;-71
2023/11/16 06:43:37;;;;;;;4.60;1.38;;;;;;;10.32;100.00;100727.38;5010476;28;20045;-71
2023/11/16 06:46:03;;;;;;;2.58;1.48;;;;;;;10.27;100.00;100718.50;5026084;28;20018;-71
2023/11/16 06:48:30;;;;;;;3.47;1.55;;;;;;;10.45;100.00;100737.38;5010955;28;20492;-71
2023/11/16 06:50:58;;;;;;;2.88;1.38;;;;;;;10.61;100.00;100733.75;5010530;28;20053;-71
2023/11/16 06:53:25;;;;;;;3.33;1.63;;;;;;;10.60;100.00;100738.84;5011555;28;20116;-74
2023/11/16 06:55:52;;;;;;;3.30;1.20;;;;;;;10.60;100.00;100729.41;5010966;28;20400;-72
2023/11/16 06:58:20;;;;;;;1.13;1.00;;;;;;;10.55;100.00;100724.88;5010835;28;20029;-72
2023/11/16 07:00:50;;;;;;;2.13;1.30;;;;;;;10.71;100.00;100729.84;5011085;28;20088;-72
2023/11/16 07:03:16;;;;;;;2.92;1.42;;;;;;;10.75;100.00;100731.72;5011330;28;20022;-72
2023/11/16 07:05:41;;;;;;;2.63;1.58;;;;;;;10.98;100.00;100734.38;5011122;28;20479;-72
2023/11/16 07:08:06;;;;;;;3.05;1.30;;;;;;;10.81;100.00;100679.44;5011315;28;20022;-71
2023/11/16 07:10:32;;;;;;;2.47;1.60;;;;;;;11.32;100.00;100749.47;5011103;28;20049;-72
2023/11/16 07:13:02;;;;;;;4.75;2.20;;;;;;;11.31;100.00;100731.31;5010962;28;20034;-72
2023/11/16 07:15:28;;;;;;;;;;;;;;;11.50;100.00;100750.97;5011361;28;20025;-73
2023/11/16 07:17:54;;;;;;;1.58;1.23;;;;;;;11.49;100.00;100755.28;5010823;28;19913;-72
2023/11/16 07:20:21;;;;;;;2.60;1.58;;;;;;;11.57;100.00;100759.88;5010855;28;20036;-71
2023/11/16 07:22:47;;;;;;;1.83;1.45;;;;;;;11.18;100.00;100670.53;5010717;28;20097;-72
2023/11/16 07:25:15;;;;;;;1.50;1.05;;;;;;;11.75;100.00;100768.31;5010536;28;20120;-72
2023/11/16 07:27:41;;;;;;;4.78;1.58;;;;;;;10.96;100.00;100622.34;5026081;28;20504;-71
2023/11/16 07:30:07;;;;;;;2.13;1.13;;;;;;;11.92;100.00;100768.03;5010863;28;20040;-72
2023/11/16 07:32:33;;;;;;;1.80;1.15;;;;;;;11.95;100.00;100762.97;5010573;28;20506;-72
2023/11/16 07:34:58;;;;;;;4.72;1.40;;;;;;;11.96;100.00;100763.06;5010754;28;20046;-71
2023/11/16 07:37:25;;;;;;;7.82;2.28;;;;;;;12.03;100.00;100765.88;5010753;28;20144;-72
2023/11/16 07:39:50;;;;;;;2.55;1.30;;;;;;;12.04;100.00;100770.22;5023428;28;20042;-72
2023/11/16 07:42:16;;;;;;;2.58;1.40;;;;;;;11.50;100.00;100699.25;5009202;28;20108;-71
2023/11/16 07:44:44;;;;;;;1.83;1.23;;;;;;;11.90;100.00;100782.63;5008773;28;20040;-72
2023/11/16 07:47:10;;;;;;;2.45;1.30;;;;;;;11.80;100.00;100764.19;5008685;28;20133;-71
2023/11/16 07:49:36;;;;;;;4.15;1.50;;;;;;;11.63;100.00;100696.31;5008685;28;20030;-74
2023/11/16 07:52:01;;;;;;;3.75;1.33;;;;;;;12.26;100.00;100777.94;5009168;28;20091;-73
2023/11/16 07:54:27;;;;;;;2.20;1.08;;;;;;;12.22;100.00;100770.00;5012907;28;20026;-73
2023/11/16 07:56:55;;;;;;;2.53;1.25;;;;;;;12.35;100.00;100789.41;5013820;28;20427;-72
2023/11/16 07:59:30;;;;;;;3.70;1.48;;;;;;;11.58;100.00;100658.19;5014080;28;20025;-72
2023/11/16 08:01:56;;;;;;;1.25;1.10;;;;;;;12.38;100.00;100776.59;5020219;28;20088;-76
2023/11/16 08:04:25;;;;;;;2.13;1.45;;;;;;;12.36;100.00;100761.00;5024158;28;20033;-70
2023/11/16 08:06:55;;;;;;;2.45;1.52;;;;;;;12.03;100.00;100699.47;5016585;28;20033;-71
2023/11/16 08:09:24;;;;;;;1.35;0.90;;;;;;;11.76;100.00;100633.00;5018563;28;20030;-72
2023/11/16 08:11:59;;;;;;;1.52;1.10;;;;;;;12.52;100.00;100740.78;5010442;28;20044;-70
2023/11/16 08:14:25;;;;;;;1.33;0.90;;;;;;;12.80;100.00;100781.44;5013945;28;20037;-72
2023/11/16 08:16:55;;;;;;;2.17;1.25;;;;;;;12.76;100.00;100777.88;5013099;28;20467;-72
2023/11/16 08:19:21;;;;;;;2.35;1.08;;;;;;;12.94;100.00;100767.22;5012298;28;20484;-72
2023/11/16 08:21:46;;;;;;;2.65;1.27;;;;;;;12.94;100.00;100781.91;5013579;28;20092;-70
2023/11/16 08:24:15;;;;;;;1.10;1.00;;;;;;;13.01;100.00;100782.97;5012629;28;20049;-70
2023/11/16 08:26:42;;;;;;;1.92;1.10;;;;;;;12.97;100.00;100776.78;5010914;28;20060;-71
2023/11/16 08:29:08;;;;;;;1.58;1.15;;;;;;;13.13;100.00;100787.66;5013666;28;20033;-76
2023/11/16 08:31:34;;;;;;;1.67;1.20;;;;;;;12.39;100.00;100629.06;5013238;28;20018;-71
2023/11/16 08:34:00;;;;;;;2.13;0.95;;;;;;;13.10;99.77;100789.31;5013382;28;20080;-71
2023/11/16 08:36:26;;;;;;;1.00;0.90;;;;;;;13.21;100.00;100786.22;5013132;28;20058;-72
2023/11/16 08:38:52;;;;;;;2.10;1.20;;;;;;;13.38;99.23;100791.94;5013283;28;20088;-70
2023/11/16 08:41:17;;;;;;;1.80;1.13;;;;;;;13.39;99.11;100786.78;5060087;28;20443;-72
2023/11/16 08:43:47;;;;;;;2.55;1.13;;;;;;;13.52;98.53;100774.19;5013977;28;20030;-72
2023/11/16 08:46:24;;;;;;;1.20;1.10;;;;;;;13.59;98.57;100778.72;5019140;28;20037;-71
2023/11/16 08:48:53;;;;;;;2.75;1.30;;;;;;;13.85;96.93;100776.88;5010849;28;20057;-73
2023/11/16 08:51:22;;;;;;;2.15;1.20;;;;;;;13.91;97.02;100776.19;5013226;28;20104;-71
2023/11/16 08:53:50;;;;;;;2.65;1.02;;;;;;;13.94;94.54;100778.84;5013303;28;20038;-75
2023/11/16 08:56:16;;;;;;;1.75;0.90;;;;;;;14.01;93.43;100783.38;5057197;28;20048;-69
2023/11/16 08:58:47;;;;;;;3.38;0.90;;;;;;;14.15;93.70;100775.13;5012916;28;20022;-72
2023/11/16 09:01:16;;;;;;;1.85;1.05;;;;;;;13.73;92.65;100690.91;5013274;28;20451;-70
2023/11/16 09:03:45;;;;;;;2.53;1.10;;;;;;;14.30;92.60;100772.03;5011939;28;20036;-71
2023/11/16 09:06:15;;;;;;;0.80;0.73;;;;;;;14.17;87.81;100760.47;5009169;28;20116;-74
2023/11/16 09:08:42;;;;;;;1.52;1.13;;;;;;;14.15;88.99;100750.00;5012285;28;20109;-69
2023/11/16 09:11:08;;;;;;;0.95;0.90;;;;;;;14.53;90.46;100776.13;5012832;28;20022;-73
2023/11/16 09:13:34;;;;;;;1.88;1.10;;;;;;;14.02;89.59;100699.50;5012313;28;20038;-69
2023/11/16 09:15:59;;;;;;;2.13;0.98;;;;;;;14.40;89.51;100772.34;5012930;28;20030;-72
2023/11/16 09:18:27;;;;;;;2.65;1.13;;;;;;;14.37;89.98;100761.00;5012129;28;20018;-71
2023/11/16 09:20:56;;;;;;;0.90;0.80;;;;;;;14.33;87.06;100760.03;5012822;28;20476;-71
2023/11/16 09:23:23;;;;;;;1.60;0.80;;;;;;;14.44;88.44;100768.06;5002210;28;20096;-70
2023/11/16 09:25:48;;;;;;;0.98;0.88;;;;;;;14.79;88.49;100775.03;5010523;28;20054;-73
2023/11/16 09:28:15;;;;;;;1.10;0.82;;;;;;;14.52;85.77;100770.91;5012387;28;20405;-72
2023/11/16 09:30:43;;;;;;;1.15;0.90;;;;;;;14.49;87.19;100765.59;5012194;28;20136;-71
2023/11/16 09:33:12;;;;;;;1.58;1.10;;;;;;;14.43;86.01;100765.44;5017896;28;20113;-73
2023/11/16 09:35:38;;;;;;;3.88;1.23;;;;;;;14.57;84.86;100762.34;5011466;28;20065;-72
2023/11/16 09:38:08;;;;;;;2.13;1.05;;;;;;;14.30;84.11;100689.81;5012136;28;20029;-71
2023/11/16 09:40:35;;;;;;;1.67;0.80;;;;;;;14.65;81.74;100749.59;5005043;28;20149;-75
2023/11/16 09:43:04;;;;;;;1.83;0.90;;;;;;;14.68;81.23;100739.28;5002971;28;20036;-75
2023/11/16 09:45:31;;;;;;;1.27;0.90;;;;;;;14.81;82.49;100758.66;5012086;28;20101;-73
2023/11/16 09:48:10;;;;;;;2.97;0.90;;;;;;;14.98;83.05;100743.47;4993310;28;20069;-72
2023/11/16 09:50:42;;;;;;;3.20;0.87;;;;;;;15.23;81.79;100745.72;5011695;28;20034;-73
2023/11/16 09:53:13;;;;;;;2.70;0.90;;;;;;;15.16;80.51;100739.50;5011678;28;20092;-71
2023/11/16 09:55:44;;;;;;;1.60;0.85;;;;;;;15.09;80.64;100711.59;5012069;28;20026;-73
2023/11/16 09:58:17;;;;;;;1.58;0.77;;;;;;;15.52;80.60;100757.63;5012059;28;20451;-73
2023/11/16 10:00:48;;;;;;;1.88;0.98;;;;;;;15.40;81.41;100736.56;5011643;28;20520;-72
2023/11/16 10:03:21;;;;;;;1.80;1.33;;;;;;;15.40;78.72;100727.91;5011903;28;20036;-73
2023/11/16 10:05:47;;;;;;;0.68;0.68;;;;;;;15.34;75.40;100708.72;5011439;28;20145;-71
2023/11/16 10:08:15;;;;;;;3.47;0.80;;;;;;;15.61;76.17;100740.47;5011026;28;20029;-72
2023/11/16 10:10:55;;;;;;;2.40;0.60;;;;;;;15.83;76.95;100736.63;5011463;28;20137;-73
2023/11/16 10:13:22;;;;;;;3.00;1.00;;;;;;;15.87;73.36;100725.41;5011604;28;20034;-71
2023/11/16 10:15:49;;;;;;;0.73;0.60;;;;;;;15.61;72.27;100728.31;5010686;28;20489;-74
2023/11/16 10:18:14;;;;;;;0.80;0.70;;;;;;;15.71;73.77;100729.41;4992661;28;20485;-72
2023/11/16 10:20:43;;;;;;;1.08;0.90;;;;;;;15.73;73.23;100706.03;5011772;28;20037;-77
2023/11/16 10:23:10;;;;;;;1.08;0.60;;;;;;;15.90;74.42;100693.34;5011634;28;20072;-71
2023/11/16 10:25:37;;;;;;;1.80;0.65;;;;;;;16.16;70.17;100707.72;5011558;28;20026;-70
2023/11/16 10:28:16;;;;;;;1.98;0.80;;;;;;;16.33;73.51;100734.06;5011511;28;20140;-73
2023/11/16 10:30:53;;;;;;;0.60;0.60;;;;;;;16.42;73.75;100720.31;5010371;28;20033;-72
2023/11/16 10:33:23;;;;;;;1.13;0.65;;;;;;;15.98;71.63;100642.28;5011471;28;20083;-71
2023/11/16 10:35:49;;;;;;;;;;;;;;;16.58;73.52;100715.38;5003333;28;20085;-72
2023/11/16 10:38:16;;;;;;;4.45;0.68;;;;;;;16.59;70.94;100717.13;5025072;28;19936;-72
2023/11/16 10:40:53;;;;;;;3.13;0.70;;;;;;;16.32;70.29;100718.41;5007918;28;20064;-71
2023/11/16 10:43:27;;;;;;;7.70;1.40;;;;;;;16.22;71.02;100717.38;5015388;28;20032;-69
2023/11/16 10:45:54;;;;;;;0.70;0.70;;;;;;;16.22;65.68;100711.28;5012592;28;20022;-69
2023/11/16 10:48:20;;;;;;;1.80;0.70;;;;;;;16.30;66.96;100694.94;5025307;28;20107;-71
2023/11/16 10:50:46;;;;;;;1.65;1.17;;;;;;;16.32;66.86;100715.81;5010787;28;20057;-69
2023/11/16 10:53:17;;;;;;;1.75;0.65;;;;;;;16.26;64.72;100708.78;5011063;28;20515;-71
2023/11/16 10:55:46;;;;;;;1.75;0.60;;;;;;;16.37;64.02;100716.75;5010349;28;20038;-72
2023/11/16 10:58:13;;;;;;;0.80;0.60;;;;;;;16.47;66.92;100704.75;5010646;28;20072;-71
2023/11/16 11:00:43;;;;;;;1.67;0.80;;;;;;;16.70;62.78;100706.84;5008633;28;20048;-71
2023/11/16 11:03:10;;;;;;;1.40;0.80;;;;;;;16.53;60.83;100717.03;5010622;28;20034;-73
2023/11/16 11:05:40;;;;;;;0.68;0.45;;;;;;;16.43;63.22;100711.66;5010477;28;20105;-71
2023/11/16 11:08:08;;;;;;;0.63;0.60;;;;;;;16.77;61.18;100701.78;5009868;28;20045;-70
2023/11/16 11:10:37;;;;;;;0.82;0.73;;;;;;;16.88;64.58;100685.41;5010717;28;20033;-72
2023/11/16 11:13:05;;;;;;;2.60;1.33;;;;;;;16.61;61.33;100625.06;5010818;28;20472;-69
2023/11/16 11:15:37;;;;;;;1.35;0.60;;;;;;;16.66;60.08;100644.25;5010867;28;20029;-70
2023/11/16 11:18:04;;;;;;;10.52;0.90;;;;;;;16.85;60.89;100677.53;5010652;28;20034;-70
2023/11/16 11:20:31;;;;;;;10.35;1.40;;;;;;;16.93;61.12;100697.69;5010597;28;20037;-70